Boise, ID (83705)

4:37 AM MST on February 08, 2016 (GMT -0700)
Mesa Vista | | Change Station
CLOSE
Current Station
Personal Weather Station
Location: Boise, ID
Elevation: 2766 ft
Nearby Weather Stations

Elev 2766 ft 43.60 °N, 116.21 °W | Updated 1 second ago

Clear
Clear
28.0 °F
Feels Like 28 °F
N
0.0
Wind Variable Wind from NE
Gusts 0.0 mph

Today
High -- | Low -- °F
--% Chance of Precip.
Yesterday
High -- | Low -- °F
Precip. -- in
Pressure 30.71 in
Visibility 10.0 miles
Clouds Clear
Windchill 28 °F
Dew Point 23 °F
Humidity 81%
Rainfall 0.00 in
Snow Depth Not available.
7:53 AM 6:05 PM
Waning Crescent, 0% visible
METAR KBOI 081053Z 13005KT 10SM CLR 00/M02 A3067 RMK AO2 SLP399 T00001017
Pressure 30.71 in
Visibility 10.0 miles
Clouds Clear
Windchill 28 °F
Dew Point 23 °F
Humidity 81%
Rainfall 0.00 in
Snow Depth Not available.
7:53 AM 6:05 PM
Waning Crescent, 0% visible
METAR KBOI 081053Z 13005KT 10SM CLR 00/M02 A3067 RMK AO2 SLP399 T00001017

10-Day Weather Forecast

Almanac

Astronomy

Feb. 08, 2016 Rise Set
Actual Time
Civil Twilight
Nautical Twilight
Astronomical Twilight
Moon
Length of Visible Light
Length of Day
Tomorrow will be .
, % of the Moon is Illuminated

Today's Extremes

State Highs State Lows

Community

WunderPhotos

Upload Photos

1,891,420 photos uploaded!

WunderBlog® & News

Nearby

Air Quality

  Air Quality AQ Index Pollutant
Not available.

Snow Depth

Station Depth Elevation

Earthquake Activity

City Distance Mag. Time & Date
Minimum magnitude displayed is 2.5.

Coastal Water Temperatures

Place Temperature

Stations

Nearby Weather Stations

Station Location Temp. Windchill Dew Point Humidity Wind Precip. Elev Updated Type
                   

Watches & Warnings

There are currently no watches in effect.